Time;durP1;ratioP1;P1;durP2;ratioP2;P2;SDS_P1;SDS_P2;PMS_P1;PMS_P2;Temp;Humidity;BMP_temperature;BMP_pressure;BME280_temperature;BME280_humidity;BME280_pressure;Samples;Min_cycle;Max_cycle;Signal;HPM_P1;HPM_P2
2021/10/01 06:38:45;;;;;;;3.55;1.35;;;10.20;92.40;;;;;;5117490;27;20395;-80
2021/10/01 06:41:13;;;;;;;3.85;0.98;;;10.50;91.80;;;;;;5078375;28;20036;-78
2021/10/01 06:43:43;;;;;;;2.05;0.95;;;10.60;91.70;;;;;;5095528;28;20020;-66
2021/10/01 06:46:34;;;;;;;2.60;0.50;;;10.60;91.80;;;;;;5094785;28;20025;-65
2021/10/01 06:49:16;;;;;;;3.58;0.93;;;10.60;91.50;;;;;;5075042;28;20031;-66
2021/10/01 06:51:55;;;;;;;3.92;1.02;;;10.70;91.30;;;;;;5074322;28;20104;-65
2021/10/01 07:35:56;;;;;;;3.95;0.60;;;11.50;90.30;;;;;;5074016;28;20104;-65
2021/10/01 08:19:45;;;;;;;6.28;0.80;;;11.90;90.20;;;;;;5040040;28;20500;-64
2021/10/01 08:22:13;;;;;;;2.13;0.88;;;11.90;90.20;;;;;;5039269;28;20410;-64
2021/10/01 08:24:41;;;;;;;2.65;0.80;;;11.90;90.00;;;;;;5021319;28;20112;-65
2021/10/01 08:27:09;;;;;;;2.38;0.88;;;11.90;90.20;;;;;;5021344;28;20108;-65
2021/10/01 08:29:36;;;;;;;3.15;1.50;;;12.00;89.80;;;;;;5039231;28;20033;-65
2021/10/01 08:32:06;;;;;;;2.95;0.70;;;12.00;90.20;;;;;;5038626;28;20044;-65
2021/10/01 08:34:37;;;;;;;4.28;1.00;;;12.10;89.70;;;;;;5039125;28;20428;-64
2021/10/01 08:37:06;;;;;;;2.28;1.23;;;12.10;90.00;;;;;;5039446;28;20081;-65
2021/10/01 08:39:33;;;;;;;9.10;1.85;;;12.20;90.00;;;;;;5039397;28;20041;-64
2021/10/01 08:42:01;;;;;;;5.57;0.82;;;12.20;90.00;;;;;;5039315;28;20014;-64
2021/10/01 08:44:33;;;;;;;2.38;0.80;;;12.30;89.40;;;;;;5039849;28;20420;-65
2021/10/01 08:47:03;;;;;;;3.72;1.00;;;12.30;90.20;;;;;;5039678;28;20294;-64
2021/10/01 08:49:31;;;;;;;3.45;1.00;;;12.30;89.90;;;;;;5039488;28;20025;-65
2021/10/01 08:51:59;;;;;;;7.05;1.25;;;12.40;90.10;;;;;;5039307;28;20032;-65
2021/10/01 08:54:27;;;;;;;3.28;0.77;;;12.50;89.80;;;;;;5021511;28;20044;-65
2021/10/01 08:56:55;;;;;;;2.50;1.13;;;12.60;89.60;;;;;;5039071;28;20071;-65
2021/10/01 08:59:22;;;;;;;4.38;1.15;;;12.60;90.00;;;;;;5038840;28;20048;-64
2021/10/01 09:01:50;;;;;;;4.90;0.93;;;12.70;89.70;;;;;;5038761;28;20412;-64
2021/10/01 09:04:19;;;;;;;2.38;0.80;;;12.80;89.60;;;;;;5039292;28;20025;-64
2021/10/01 09:06:48;;;;;;;3.60;1.02;;;12.80;89.50;;;;;;5037979;28;20375;-65
2021/10/01 09:09:16;;;;;;;4.43;0.90;;;12.90;89.10;;;;;;5037877;28;20384;-65
2021/10/01 09:11:48;;;;;;;3.25;0.82;;;13.00;88.80;;;;;;5037983;28;20098;-65
2021/10/01 09:14:24;;;;;;;1.35;0.50;;;13.10;88.10;;;;;;5037816;28;20329;-65
2021/10/01 09:16:52;;;;;;;5.32;1.08;;;13.20;87.80;;;;;;5038658;28;20025;-65
2021/10/01 09:19:20;;;;;;;5.63;0.80;;;13.30;86.90;;;;;;5038461;28;20032;-64
2021/10/01 09:21:52;;;;;;;3.55;1.08;;;13.40;86.80;;;;;;5021118;28;20022;-65
2021/10/01 09:24:26;;;;;;;5.05;0.80;;;13.50;86.50;;;;;;5038508;28;20491;-65
2021/10/01 09:26:56;;;;;;;2.50;0.75;;;13.50;85.90;;;;;;5038774;28;20040;-64
2021/10/01 09:29:34;;;;;;;2.35;0.88;;;13.70;85.60;;;;;;5020856;28;20302;-64
2021/10/01 09:32:16;;;;;;;2.17;0.70;;;13.70;84.80;;;;;;5038546;28;20056;-64
2021/10/01 09:34:46;;;;;;;2.83;0.75;;;13.80;85.20;;;;;;5038310;28;20025;-64
2021/10/01 09:37:30;;;;;;;3.55;1.00;;;13.90;85.20;;;;;;5032343;28;20341;-65
2021/10/01 09:40:02;;;;;;;3.80;1.20;;;14.00;85.40;;;;;;5058210;28;20040;-65
2021/10/01 09:42:33;;;;;;;5.57;1.38;;;14.00;84.30;;;;;;5058053;28;20025;-64
2021/10/01 09:45:04;;;;;;;5.40;0.73;;;14.10;84.50;;;;;;5058154;28;20032;-65
2021/10/01 09:47:35;;;;;;;2.97;0.68;;;14.20;84.60;;;;;;5057038;28;20108;-65
2021/10/01 09:50:14;;;;;;;5.15;0.88;;;14.20;84.60;;;;;;5057106;28;20017;-65
2021/10/01 09:52:53;;;;;;;2.78;0.70;;;14.30;83.20;;;;;;5057387;28;20076;-65
2021/10/01 09:55:32;;;;;;;4.03;0.93;;;14.40;83.80;;;;;;5057859;28;20316;-64
2021/10/01 09:58:08;;;;;;;2.20;0.82;;;14.60;83.40;;;;;;5057785;28;20029;-65
2021/10/01 10:00:47;;;;;;;2.42;1.02;;;14.60;82.60;;;;;;5056752;28;20021;-64
2021/10/01 10:03:24;;;;;;;2.45;1.38;;;14.70;82.70;;;;;;5057698;28;20028;-65
2021/10/01 10:05:59;;;;;;;1.92;0.63;;;14.80;82.50;;;;;;5058467;28;20021;-65
2021/10/01 10:08:33;;;;;;;1.50;0.70;;;14.90;82.20;;;;;;5058294;28;20028;-64
2021/10/01 10:11:04;;;;;;;5.13;1.52;;;15.00;81.50;;;;;;5057488;28;20433;-64
2021/10/01 10:13:47;;;;;;;4.78;0.98;;;15.10;83.00;;;;;;5058183;28;20032;-65
2021/10/01 10:16:24;;;;;;;2.25;0.55;;;15.20;81.20;;;;;;5057789;28;20025;-65
2021/10/01 10:18:57;;;;;;;2.45;0.60;;;15.30;81.50;;;;;;5057523;28;20021;-65
2021/10/01 10:21:25;;;;;;;7.10;1.10;;;15.50;80.10;;;;;;5056471;28;20035;-66
2021/10/01 10:23:55;;;;;;;4.22;0.85;;;15.60;79.30;;;;;;5057576;28;20047;-66
2021/10/01 10:26:25;;;;;;;2.65;0.90;;;15.70;78.60;;;;;;5058210;28;20029;-65
2021/10/01 10:28:54;;;;;;;2.25;0.90;;;15.80;80.10;;;;;;5056723;28;20025;-65
2021/10/01 10:31:28;;;;;;;5.70;1.10;;;16.00;77.60;;;;;;5056558;28;20067;-66
2021/10/01 10:33:57;;;;;;;4.95;1.33;;;16.10;78.00;;;;;;5056500;28;20370;-65
2021/10/01 10:36:35;;;;;;;1.92;0.70;;;16.20;77.70;;;;;;5055586;28;20021;-65
2021/10/01 10:39:11;;;;;;;3.15;0.85;;;16.30;79.30;;;;;;5037054;28;20313;-65
2021/10/01 10:42:06;;;;;;;4.47;0.95;;;16.30;77.60;;;;;;5037730;28;20093;-65
2021/10/01 10:44:49;;;;;;;2.63;0.68;;;16.30;77.10;;;;;;5037374;28;20013;-65
2021/10/01 10:47:52;;;;;;;3.22;0.77;;;16.30;77.10;;;;;;5037306;28;20321;-65
2021/10/01 10:53:06;;;;;;;1.88;0.45;;;16.30;77.20;;;;;;5037280;28;20033;-65
2021/10/01 10:55:44;;;;;;;1.67;0.85;;;16.30;76.60;;;;;;5037917;28;20032;-65
2021/10/01 10:58:27;;;;;;;3.42;0.90;;;16.20;76.00;;;;;;5037159;28;20026;-64
2021/10/01 11:01:02;;;;;;;5.05;0.85;;;16.20;76.60;;;;;;5037905;28;20014;-64
2021/10/01 11:03:35;;;;;;;2.72;0.63;;;16.30;78.30;;;;;;5037894;28;20287;-64
2021/10/01 11:06:15;;;;;;;2.92;0.80;;;16.30;78.30;;;;;;5037674;28;20432;-64
2021/10/01 11:08:44;;;;;;;3.70;0.75;;;16.40;77.60;;;;;;5037393;28;20368;-64
2021/10/01 11:11:34;;;;;;;2.20;0.50;;;16.40;76.80;;;;;;5036326;28;20025;-64
2021/10/01 11:14:20;;;;;;;2.58;0.70;;;16.50;76.50;;;;;;5036688;28;20025;-65
2021/10/01 11:16:54;;;;;;;3.47;1.23;;;16.50;75.10;;;;;;5036185;28;20344;-67
2021/10/01 11:19:45;;;;;;;2.25;0.60;;;16.50;74.60;;;;;;5036569;28;20360;-65
2021/10/01 11:22:31;;;;;;;2.90;0.50;;;16.50;74.40;;;;;;5036914;28;20040;-65
2021/10/01 11:25:12;;;;;;;4.43;0.93;;;16.50;75.40;;;;;;5040505;28;20425;-65
2021/10/01 11:27:58;;;;;;;3.72;0.77;;;16.40;74.00;;;;;;5041192;28;20021;-65
2021/10/01 11:30:29;;;;;;;1.50;0.80;;;16.40;72.60;;;;;;5040818;28;20059;-65
2021/10/01 11:33:12;;;;;;;1.63;0.35;;;16.40;73.20;;;;;;5041052;28;20080;-65
2021/10/01 11:35:54;;;;;;;1.65;0.60;;;16.40;73.60;;;;;;5040474;28;20048;-65
2021/10/01 11:38:33;;;;;;;3.97;0.77;;;16.50;73.30;;;;;;5040355;28;20045;-65
2021/10/01 11:41:14;;;;;;;3.10;0.50;;;16.60;73.00;;;;;;5040575;28;20050;-65
2021/10/01 11:43:56;;;;;;;5.18;0.75;;;16.70;72.70;;;;;;5040361;28;20028;-65
2021/10/01 11:47:00;;;;;;;4.43;0.52;;;16.80;70.60;;;;;;5040325;28;20053;-65
2021/10/01 11:49:31;;;;;;;4.10;0.85;;;16.80;70.30;;;;;;5023584;28;20048;-66
2021/10/01 11:52:09;;;;;;;3.08;0.50;;;16.80;68.50;;;;;;5040537;28;20290;-65
2021/10/01 11:54:38;;;;;;;0.85;0.30;;;16.90;69.40;;;;;;5039123;28;20026;-65
2021/10/01 11:57:08;;;;;;;3.15;0.60;;;16.90;68.70;;;;;;5039220;28;20053;-65
2021/10/01 12:00:02;;;;;;;3.35;0.57;;;17.00;69.60;;;;;;5039106;28;20022;-65
2021/10/01 12:02:41;;;;;;;1.95;0.45;;;17.00;68.40;;;;;;5039063;28;20037;-65
2021/10/01 12:05:32;;;;;;;3.70;0.50;;;17.10;69.30;;;;;;5024296;28;20428;-65
2021/10/01 12:08:10;;;;;;;1.45;0.40;;;17.20;68.80;;;;;;5039862;28;20321;-65
2021/10/01 12:10:47;;;;;;;3.58;0.68;;;17.30;67.20;;;;;;5039844;28;20033;-65
2021/10/01 12:13:24;;;;;;;3.00;0.52;;;17.40;68.20;;;;;;5039886;28;20075;-65
2021/10/01 12:16:04;;;;;;;2.25;0.47;;;17.50;68.10;;;;;;5022398;28;20025;-65
2021/10/01 12:18:40;;;;;;;2.08;0.50;;;17.50;66.30;;;;;;5039548;28;20336;-65
2021/10/01 12:21:16;;;;;;;1.88;0.50;;;17.50;66.10;;;;;;5039592;28;20028;-65
2021/10/01 12:23:48;;;;;;;2.55;0.40;;;17.60;65.20;;;;;;5039461;28;20022;-65
2021/10/01 12:26:37;;;;;;;3.58;0.68;;;17.60;64.50;;;;;;5040263;28;20018;-65
2021/10/01 12:29:19;;;;;;;2.95;0.43;;;17.60;64.00;;;;;;5039552;28;20476;-66
2021/10/01 12:31:50;;;;;;;2.20;0.47;;;17.60;63.70;;;;;;5021775;28;20026;-65
2021/10/01 12:34:24;;;;;;;2.00;0.60;;;17.70;64.70;;;;;;5039045;28;20021;-65
2021/10/01 12:36:58;;;;;;;2.05;0.40;;;17.90;65.20;;;;;;5038589;28;20437;-65
2021/10/01 12:39:27;;;;;;;1.88;0.50;;;18.10;63.60;;;;;;5039041;28;20342;-65
2021/10/01 12:42:02;;;;;;;1.63;0.50;;;18.20;63.10;;;;;;5038757;28;20036;-65
2021/10/01 12:44:39;;;;;;;7.18;1.17;;;18.30;63.30;;;;;;5038375;28;20013;-65
2021/10/01 12:47:15;;;;;;;3.15;0.60;;;18.40;62.40;;;;;;5038888;28;20025;-65
2021/10/01 12:49:56;;;;;;;2.03;1.05;;;18.50;62.10;;;;;;5039675;28;20034;-65
2021/10/01 12:52:26;;;;;;;1.58;1.02;;;18.50;62.10;;;;;;5039180;28;20147;-63
2021/10/01 12:55:00;;;;;;;1.83;0.40;;;18.60;60.50;;;;;;5038892;28;20034;-63
2021/10/01 12:57:41;;;;;;;3.08;0.40;;;18.60;60.70;;;;;;5039397;28;20026;-62
2021/10/01 13:00:16;;;;;;;1.92;0.60;;;18.70;60.60;;;;;;5038947;28;20373;-62
2021/10/01 13:02:51;;;;;;;1.20;0.50;;;18.80;60.60;;;;;;5038850;28;20026;-62
2021/10/01 13:05:23;;;;;;;4.60;0.47;;;19.00;60.10;;;;;;5038913;28;20140;-62
2021/10/01 13:07:58;;;;;;;5.80;1.15;;;19.10;58.50;;;;;;5022159;28;20033;-62
2021/10/01 13:10:40;;;;;;;5.20;0.80;;;19.20;59.10;;;;;;5038671;28;20329;-62
2021/10/01 13:13:15;;;;;;;1.40;0.40;;;19.30;58.60;;;;;;5039120;28;20037;-63
2021/10/01 13:15:56;;;;;;;1.77;0.60;;;19.40;59.30;;;;;;5039132;28;20104;-63
2021/10/01 13:18:35;;;;;;;1.85;0.50;;;19.60;58.40;;;;;;5037711;28;20079;-63
2021/10/01 13:21:25;;;;;;;1.00;0.35;;;19.60;59.60;;;;;;5037464;28;20121;-63
2021/10/01 13:24:00;;;;;;;2.65;0.50;;;19.70;59.50;;;;;;5038126;28;20025;-63
2021/10/01 13:26:40;;;;;;;4.72;0.40;;;19.80;58.90;;;;;;5037704;28;20024;-62
2021/10/01 13:29:11;;;;;;;0.95;0.50;;;19.80;60.10;;;;;;5038194;28;20022;-63
2021/10/01 13:31:41;;;;;;;1.35;0.45;;;19.90;59.90;;;;;;5038482;28;20028;-62
2021/10/01 13:34:10;;;;;;;3.58;0.52;;;20.00;58.40;;;;;;5038154;28;20100;-63
2021/10/01 13:36:39;;;;;;;1.77;0.50;;;20.10;56.90;;;;;;5038047;28;20028;-63
2021/10/01 13:39:07;;;;;;;3.50;0.60;;;20.20;56.70;;;;;;5038242;28;20469;-63
2021/10/01 13:41:35;;;;;;;3.17;0.60;;;20.20;56.60;;;;;;5038361;28;20026;-63
2021/10/01 13:44:04;;;;;;;3.63;0.60;;;20.20;57.20;;;;;;5038289;28;20325;-63
2021/10/01 13:46:31;;;;;;;0.70;0.40;;;20.30;56.90;;;;;;5037639;28;20067;-63
2021/10/01 13:48:59;;;;;;;1.40;0.63;;;20.20;56.60;;;;;;5038003;28;20017;-63
2021/10/01 13:51:26;;;;;;;3.35;0.50;;;20.20;56.60;;;;;;5037975;28;20022;-63
2021/10/01 13:53:54;;;;;;;1.42;0.50;;;20.20;56.90;;;;;;5037979;28;20104;-63
2021/10/01 13:56:22;;;;;;;4.90;0.63;;;20.30;56.00;;;;;;5037897;28;20465;-63
2021/10/01 13:58:50;;;;;;;4.72;0.80;;;20.50;55.30;;;;;;5038162;28;20129;-63
2021/10/01 14:01:18;;;;;;;2.38;0.60;;;20.60;55.40;;;;;;5038040;28;20029;-63
2021/10/01 14:03:46;;;;;;;3.45;0.68;;;21.50;54.80;;;;;;5037754;28;20028;-63
2021/10/01 14:06:14;;;;;;;2.38;1.13;;;22.40;53.70;;;;;;5038284;28;20128;-63
2021/10/01 14:08:41;;;;;;;1.45;0.60;;;23.30;51.40;;;;;;5038287;28;20022;-63
2021/10/01 14:11:09;;;;;;;3.88;0.60;;;24.10;50.00;;;;;;5020589;28;20029;-63
2021/10/01 14:13:36;;;;;;;3.15;1.45;;;24.20;49.60;;;;;;5038196;28;20353;-63
2021/10/01 14:16:05;;;;;;;5.13;0.70;;;24.40;49.30;;;;;;5037616;28;20044;-63
2021/10/01 14:18:33;;;;;;;2.67;0.70;;;24.50;48.70;;;;;;5037969;28;20030;-63
2021/10/01 14:20:59;;;;;;;3.63;0.70;;;24.40;49.20;;;;;;5038200;28;20413;-63
2021/10/01 14:23:27;;;;;;;2.42;0.50;;;24.20;50.10;;;;;;5020375;28;20022;-63
2021/10/01 14:25:55;;;;;;;3.13;0.57;;;23.90;50.00;;;;;;5019134;28;20064;-63
2021/10/01 14:28:22;;;;;;;1.98;0.52;;;23.50;51.00;;;;;;5037393;28;20354;-63
2021/10/01 14:30:50;;;;;;;1.77;0.90;;;23.10;52.30;;;;;;5036568;28;20420;-62
2021/10/01 14:33:17;;;;;;;2.45;0.50;;;22.60;52.50;;;;;;5019695;28;20026;-62
2021/10/01 14:35:44;;;;;;;2.72;0.40;;;22.20;53.10;;;;;;5037033;28;20026;-63
2021/10/01 14:38:12;;;;;;;2.15;0.90;;;21.90;54.40;;;;;;5036784;28;20136;-62
2021/10/01 14:40:41;;;;;;;2.33;0.63;;;21.60;55.10;;;;;;5036736;28;20057;-63
2021/10/01 14:43:08;;;;;;;2.60;0.88;;;21.30;56.10;;;;;;5036419;28;20018;-63
2021/10/01 14:45:36;;;;;;;2.38;0.80;;;21.20;57.00;;;;;;5037155;28;20025;-63
2021/10/01 14:48:04;;;;;;;2.55;0.80;;;21.10;57.20;;;;;;5037455;28;20425;-62
2021/10/01 14:50:31;;;;;;;0.98;0.50;;;21.20;57.40;;;;;;5037276;28;20029;-62
2021/10/01 14:52:59;;;;;;;1.08;0.40;;;21.30;57.00;;;;;;5037785;28;20025;-62
2021/10/01 14:55:27;;;;;;;2.85;0.55;;;21.20;57.10;;;;;;5037449;28;20022;-62
2021/10/01 14:57:54;;;;;;;1.60;0.50;;;20.90;57.70;;;;;;5037151;28;20029;-62
2021/10/01 15:00:22;;;;;;;2.28;0.70;;;20.60;57.60;;;;;;5040955;28;20029;-62
2021/10/01 15:02:49;;;;;;;2.85;0.82;;;20.40;57.60;;;;;;5041286;28;20029;-62
2021/10/01 15:05:17;;;;;;;3.45;0.40;;;20.10;58.80;;;;;;5040711;28;20049;-62
2021/10/01 15:07:44;;;;;;;1.58;0.60;;;19.80;60.00;;;;;;5040065;28;20029;-62
2021/10/01 15:10:11;;;;;;;1.60;0.60;;;19.70;60.00;;;;;;5040642;28;20314;-62
2021/10/01 15:12:39;;;;;;;1.20;0.47;;;19.50;60.90;;;;;;5040541;28;20017;-62
2021/10/01 15:15:08;;;;;;;1.45;0.52;;;19.30;61.00;;;;;;5040286;28;20325;-62
2021/10/01 15:17:38;;;;;;;6.75;0.65;;;19.10;61.50;;;;;;5039589;28;20025;-62
2021/10/01 15:20:07;;;;;;;3.53;0.60;;;19.00;62.30;;;;;;5040366;28;20049;-62
2021/10/01 15:22:35;;;;;;;2.58;0.60;;;18.80;62.30;;;;;;5039898;28;20018;-62
2021/10/01 15:25:03;;;;;;;1.20;0.38;;;18.60;62.60;;;;;;5039867;28;20033;-62
2021/10/01 15:27:31;;;;;;;0.80;0.38;;;18.50;63.00;;;;;;5040947;28;20068;-62
2021/10/01 15:30:09;;;;;;;1.75;0.60;;;18.30;63.00;;;;;;5041201;28;20348;-62
2021/10/01 15:32:36;;;;;;;2.33;0.52;;;18.20;63.00;;;;;;5040791;28;20030;-62
2021/10/01 15:35:05;;;;;;;0.60;0.30;;;18.10;62.90;;;;;;5022911;28;20368;-62
2021/10/01 15:37:33;;;;;;;2.20;0.40;;;18.00;63.10;;;;;;5040828;28;20105;-62
2021/10/01 15:40:02;;;;;;;1.50;0.50;;;17.90;62.50;;;;;;5040977;28;20029;-62
2021/10/01 15:42:30;;;;;;;2.67;1.08;;;17.70;64.90;;;;;;5040312;28;20022;-62
2021/10/01 15:44:57;;;;;;;4.60;0.77;;;17.60;66.70;;;;;;5040487;28;20026;-62
2021/10/01 15:47:25;;;;;;;2.65;0.60;;;17.50;65.40;;;;;;5040025;28;20326;-62
2021/10/01 15:49:53;;;;;;;1.10;0.60;;;17.30;65.60;;;;;;5039981;28;20419;-62
2021/10/01 15:52:20;;;;;;;2.67;0.60;;;17.20;64.70;;;;;;5039438;28;20026;-62
2021/10/01 15:54:48;;;;;;;0.75;0.35;;;17.20;64.30;;;;;;5039318;28;20028;-63
2021/10/01 15:57:16;;;;;;;1.25;0.60;;;17.10;62.40;;;;;;5039424;28;20017;-63
2021/10/01 15:59:44;;;;;;;1.05;0.40;;;17.10;62.20;;;;;;5021653;28;20017;-63
2021/10/01 16:02:12;;;;;;;4.00;0.40;;;17.00;61.70;;;;;;5039871;28;20025;-62
2021/10/01 16:04:40;;;;;;;2.42;0.50;;;17.00;61.50;;;;;;5039704;28;20032;-62
2021/10/01 16:07:07;;;;;;;1.83;0.85;;;16.90;61.80;;;;;;5039165;28;20413;-62
2021/10/01 16:09:35;;;;;;;2.00;0.50;;;16.80;61.30;;;;;;5022592;28;20364;-62
2021/10/01 16:12:03;;;;;;;1.98;0.60;;;16.80;62.10;;;;;;5040379;28;20029;-63
2021/10/01 16:14:31;;;;;;;2.17;0.65;;;16.70;61.80;;;;;;5022308;28;20032;-62
2021/10/01 16:16:58;;;;;;;2.13;0.90;;;16.70;62.70;;;;;;5040245;28;20024;-62
2021/10/01 16:19:26;;;;;;;2.97;0.75;;;16.60;62.10;;;;;;5039892;28;20436;-62
2021/10/01 16:21:54;;;;;;;2.30;0.52;;;16.60;63.10;;;;;;5039909;28;20388;-62
2021/10/01 16:24:22;;;;;;;1.52;0.63;;;16.50;63.10;;;;;;5022120;28;20164;-62
2021/10/01 16:26:49;;;;;;;3.33;0.40;;;16.40;62.90;;;;;;5039704;28;20333;-62
2021/10/01 16:29:19;;;;;;;1.98;0.40;;;16.40;63.20;;;;;;5039006;28;20060;-63
2021/10/01 16:31:47;;;;;;;1.33;0.45;;;16.40;63.40;;;;;;5038733;28;20014;-63
2021/10/01 16:34:19;;;;;;;2.85;0.57;;;16.30;63.30;;;;;;5021102;28;20332;-62
2021/10/01 16:36:48;;;;;;;3.00;0.38;;;16.30;64.00;;;;;;5038291;28;20045;-62
2021/10/01 16:39:17;;;;;;;2.35;0.73;;;16.20;63.90;;;;;;5038499;28;20057;-62
2021/10/01 16:41:46;;;;;;;3.00;0.60;;;16.10;64.10;;;;;;5038430;28;20032;-62
2021/10/01 16:44:16;;;;;;;2.92;0.65;;;16.10;64.30;;;;;;5038968;28;20057;-62
2021/10/01 16:46:45;;;;;;;1.40;0.50;;;16.00;64.60;;;;;;5038603;28;20014;-62
2021/10/01 16:49:13;;;;;;;1.95;0.43;;;15.90;64.40;;;;;;5038325;28;20436;-62
2021/10/01 16:51:42;;;;;;;2.20;0.68;;;15.90;64.90;;;;;;5021690;28;20052;-62
2021/10/01 16:54:13;;;;;;;8.65;2.38;;;15.80;64.80;;;;;;5038981;28;20120;-62
2021/10/01 16:56:41;;;;;;;9.13;2.88;;;15.80;65.20;;;;;;5039018;28;20025;-62
2021/10/01 16:59:09;;;;;;;11.65;4.53;;;15.80;65.30;;;;;;5038928;28;20087;-62
2021/10/01 17:01:37;;;;;;;5.82;2.53;;;15.70;65.10;;;;;;5038876;28;20302;-62
2021/10/01 17:04:04;;;;;;;13.18;5.30;;;15.70;65.40;;;;;;5038761;28;20081;-62
2021/10/01 17:06:32;;;;;;;4.75;1.80;;;15.70;65.60;;;;;;5038808;28;20022;-62
2021/10/01 17:08:59;;;;;;;6.28;3.20;;;15.60;65.50;;;;;;5038927;28;20021;-62
2021/10/01 17:11:26;;;;;;;1.35;0.65;;;15.60;65.60;;;;;;5038433;28;20459;-62
2021/10/01 17:13:54;;;;;;;2.90;1.40;;;15.60;66.00;;;;;;5020246;28;20307;-62
2021/10/01 17:16:21;;;;;;;3.33;1.77;;;15.50;66.10;;;;;;5020540;28;20025;-62
2021/10/01 17:18:49;;;;;;;2.40;0.55;;;15.50;66.10;;;;;;5037671;28;20095;-62
2021/10/01 17:21:16;;;;;;;2.08;0.60;;;15.50;66.10;;;;;;5037350;28;20026;-62
2021/10/01 17:23:44;;;;;;;0.90;0.40;;;15.50;66.10;;;;;;5038104;28;20014;-62
2021/10/01 17:26:12;;;;;;;1.88;0.60;;;15.50;66.40;;;;;;5037591;28;20027;-62
2021/10/01 17:28:39;;;;;;;1.15;0.47;;;15.50;66.70;;;;;;5037527;28;20029;-62
2021/10/01 17:31:07;;;;;;;1.38;0.60;;;15.40;66.70;;;;;;5038139;28;20044;-62
2021/10/01 17:33:34;;;;;;;0.95;0.60;;;15.40;66.70;;;;;;5021059;28;20479;-62
2021/10/01 17:36:03;;;;;;;2.35;1.20;;;15.40;67.00;;;;;;5038968;28;20067;-62
2021/10/01 17:38:30;;;;;;;1.10;0.70;;;15.40;67.10;;;;;;5038141;28;20179;-62
2021/10/01 17:40:57;;;;;;;5.82;3.08;;;15.40;67.30;;;;;;5038513;28;20087;-62
2021/10/01 17:43:25;;;;;;;6.65;3.55;;;15.40;67.60;;;;;;5038123;28;20044;-62
2021/10/01 17:45:53;;;;;;;3.72;2.00;;;15.40;68.00;;;;;;5038249;28;20023;-62
2021/10/01 17:48:20;;;;;;;2.70;1.20;;;15.30;68.00;;;;;;5037979;28;20025;-62
2021/10/01 17:50:49;;;;;;;2.88;1.50;;;15.30;68.20;;;;;;5037771;28;20060;-62
2021/10/01 17:53:16;;;;;;;1.83;0.90;;;15.20;68.80;;;;;;5036945;28;20040;-62
2021/10/01 17:55:47;;;;;;;5.07;1.38;;;15.20;69.40;;;;;;5020315;28;20413;-62
2021/10/01 17:58:16;;;;;;;8.60;2.25;;;15.10;69.70;;;;;;5036714;28;20121;-62
2021/10/01 18:00:51;;;;;;;6.88;2.47;;;15.00;70.20;;;;;;5037559;28;20017;-61
2021/10/01 18:03:19;;;;;;;7.72;3.70;;;15.00;70.50;;;;;;5036922;28;20022;-62
2021/10/01 18:05:46;;;;;;;12.05;3.80;;;15.00;70.90;;;;;;5037016;28;20097;-62
2021/10/01 18:08:14;;;;;;;8.93;3.30;;;15.00;71.00;;;;;;5037357;28;20321;-62
2021/10/01 18:10:42;;;;;;;16.60;4.65;;;14.90;71.10;;;;;;5037282;28;20021;-62
2021/10/01 18:13:10;;;;;;;10.35;3.30;;;14.90;71.70;;;;;;5037333;28;20354;-62
2021/10/01 18:15:38;;;;;;;5.07;2.40;;;14.90;71.80;;;;;;5038339;28;20150;-62
2021/10/01 18:18:06;;;;;;;6.10;2.67;;;14.90;72.00;;;;;;5037438;28;20482;-62
2021/10/01 18:20:34;;;;;;;5.05;2.90;;;14.90;72.50;;;;;;5038076;28;20428;-62
2021/10/01 18:23:03;;;;;;;4.95;2.08;;;14.80;72.90;;;;;;5037455;28;20018;-62
2021/10/01 18:25:31;;;;;;;3.67;1.77;;;14.80;72.90;;;;;;5037981;28;20075;-62
2021/10/01 18:27:59;;;;;;;6.88;2.75;;;14.80;73.30;;;;;;5037519;28;20053;-62
2021/10/01 18:30:27;;;;;;;4.55;2.03;;;14.70;73.40;;;;;;5037673;28;20033;-62
2021/10/01 18:32:55;;;;;;;5.43;1.45;;;14.70;73.60;;;;;;5037137;28;20032;-62
2021/10/01 18:35:23;;;;;;;6.88;2.30;;;14.70;73.70;;;;;;5037038;28;20100;-62
2021/10/01 18:37:50;;;;;;;4.80;1.20;;;14.70;74.00;;;;;;5036461;28;20045;-62
2021/10/01 18:40:18;;;;;;;4.10;0.90;;;14.70;74.20;;;;;;5037185;28;20030;-62
2021/10/01 18:42:46;;;;;;;6.00;1.90;;;14.70;74.40;;;;;;5036490;28;20040;-62
2021/10/01 18:45:14;;;;;;;2.53;1.42;;;14.70;74.40;;;;;;5036693;28;20062;-62
2021/10/01 18:47:42;;;;;;;4.65;0.90;;;14.70;74.30;;;;;;5036598;28;20029;-62
2021/10/01 18:50:09;;;;;;;3.63;0.80;;;14.70;75.30;;;;;;5018805;28;20128;-62
2021/10/01 18:52:37;;;;;;;3.70;0.65;;;14.70;74.80;;;;;;5036540;28;20025;-62
2021/10/01 18:55:05;;;;;;;2.63;0.85;;;14.70;74.80;;;;;;5036714;28;20473;-62
2021/10/01 18:57:33;;;;;;;2.25;0.70;;;14.70;75.10;;;;;;5037127;28;20029;-62
2021/10/01 19:00:01;;;;;;;4.85;1.02;;;14.70;74.70;;;;;;5037738;28;20099;-62
2021/10/01 19:02:31;;;;;;;1.98;0.80;;;14.70;75.10;;;;;;5037359;28;20032;-62
2021/10/01 19:05:00;;;;;;;5.03;1.17;;;14.70;75.20;;;;;;5037256;28;20037;-62
2021/10/01 19:07:29;;;;;;;6.40;0.93;;;14.70;74.90;;;;;;5037447;28;20025;-62
2021/10/01 19:09:56;;;;;;;3.22;0.65;;;14.80;75.10;;;;;;5037129;28;20409;-62
2021/10/01 19:12:24;;;;;;;3.40;1.30;;;14.80;74.80;;;;;;5037165;28;20025;-62
2021/10/01 19:14:52;;;;;;;2.63;0.80;;;14.80;74.90;;;;;;5036943;28;20076;-62
2021/10/01 19:17:20;;;;;;;2.58;0.93;;;14.80;75.50;;;;;;5036077;28;20060;-62
2021/10/01 19:19:47;;;;;;;3.83;1.00;;;14.80;75.20;;;;;;5036700;28;20072;-62
2021/10/01 19:22:16;;;;;;;2.17;0.60;;;14.80;75.50;;;;;;5036527;28;20304;-62
2021/10/01 19:24:57;;;;;;;1.67;0.60;;;14.80;75.10;;;;;;5036036;28;20025;-62
2021/10/01 19:30:23;;;;;;;3.17;1.20;;;14.70;75.50;;;;;;5036005;28;20456;-62
2021/10/01 19:32:57;;;;;;;2.42;0.63;;;14.70;75.60;;;;;;5036077;28;20155;-62
2021/10/01 19:35:26;;;;;;;2.90;0.70;;;14.70;75.60;;;;;;5036513;28;20072;-62
2021/10/01 19:37:55;;;;;;;2.15;1.02;;;14.70;75.90;;;;;;5036739;28;20052;-62
2021/10/01 19:40:23;;;;;;;1.65;0.70;;;14.70;75.90;;;;;;5037065;28;20022;-62
2021/10/01 19:42:55;;;;;;;2.65;0.80;;;14.70;76.10;;;;;;5036828;28;20112;-62
2021/10/01 19:45:24;;;;;;;2.38;0.93;;;14.70;76.20;;;;;;5038835;28;20436;-62
2021/10/01 19:47:54;;;;;;;3.70;1.00;;;14.70;76.20;;;;;;5040011;28;20041;-62
2021/10/01 19:50:26;;;;;;;2.58;1.10;;;14.60;76.30;;;;;;5040567;28;20056;-62
2021/10/01 19:52:54;;;;;;;5.13;0.90;;;14.70;76.30;;;;;;5040285;28;20030;-62
2021/10/01 19:55:22;;;;;;;5.97;0.95;;;14.70;76.50;;;;;;5039777;28;20032;-62
2021/10/01 19:57:55;;;;;;;2.22;0.68;;;14.70;76.20;;;;;;5039191;28;20033;-62
2021/10/01 20:00:33;;;;;;;5.78;0.73;;;14.70;76.70;;;;;;5039117;28;20071;-62
2021/10/01 20:03:03;;;;;;;4.72;0.88;;;14.70;76.50;;;;;;5039357;28;20022;-62
2021/10/01 20:05:31;;;;;;;2.10;0.75;;;14.70;76.80;;;;;;5039523;28;20017;-62
2021/10/01 20:07:58;;;;;;;2.80;0.95;;;14.60;76.80;;;;;;5039080;28;20440;-62
2021/10/01 20:10:28;;;;;;;3.65;0.98;;;14.60;77.00;;;;;;5039016;28;20029;-62
2021/10/01 20:12:56;;;;;;;1.40;0.70;;;14.60;77.10;;;;;;5022857;28;20061;-62
2021/10/01 20:15:24;;;;;;;3.83;1.30;;;14.50;77.40;;;;;;5022333;28;20021;-62
2021/10/01 20:17:56;;;;;;;3.55;1.25;;;14.50;77.30;;;;;;5039904;28;20033;-62
2021/10/01 20:20:41;;;;;;;3.78;0.65;;;14.50;77.40;;;;;;5039557;28;20057;-62
2021/10/01 20:23:43;;;;;;;3.85;0.93;;;14.50;77.70;;;;;;5039674;28;20032;-62
2021/10/01 20:38:19;;;;;;;2.67;0.88;;;14.40;77.90;;;;;;5039584;28;20018;-62
2021/10/01 20:48:24;;;;;;;2.75;0.65;;;14.30;78.80;;;;;;5038522;28;20032;-62
2021/10/01 20:51:00;;;;;;;6.57;0.80;;;14.30;79.00;;;;;;5038268;28;20421;-62
2021/10/01 20:53:29;;;;;;;2.78;0.93;;;14.30;78.70;;;;;;5038497;28;20025;-62
2021/10/01 20:56:00;;;;;;;2.17;0.60;;;14.30;79.00;;;;;;5038115;28;20057;-62
2021/10/01 20:58:38;;;;;;;1.70;0.88;;;14.20;79.30;;;;;;5038560;28;20029;-62
2021/10/01 21:04:11;;;;;;;2.30;0.70;;;14.10;79.50;;;;;;5039326;28;20073;-62
2021/10/01 21:37:38;;;;;;;2.75;0.90;;;13.90;81.50;;;;;;5037682;28;20056;-62
2021/10/01 21:43:21;;;;;;;5.00;0.70;;;13.90;81.40;;;;;;5038566;28;20063;-62
2021/10/01 21:46:02;;;;;;;3.90;1.15;;;13.90;81.50;;;;;;5038616;28;20082;-62
2021/10/01 21:48:33;;;;;;;3.83;1.08;;;13.90;81.60;;;;;;5037889;28;20029;-62
2021/10/01 21:51:00;;;;;;;1.75;0.68;;;13.90;81.70;;;;;;5020594;28;20044;-62
2021/10/01 21:53:32;;;;;;;4.13;1.00;;;13.90;82.00;;;;;;5038015;28;20017;-62
2021/10/01 21:56:00;;;;;;;3.70;0.90;;;13.80;81.90;;;;;;5038125;28;20029;-62
2021/10/01 21:58:32;;;;;;;4.78;1.13;;;13.80;82.00;;;;;;5037587;28;20413;-62
2021/10/01 22:01:02;;;;;;;4.60;1.50;;;13.80;82.60;;;;;;5037570;28;20029;-62
2021/10/01 22:09:11;;;;;;;4.13;0.93;;;13.70;83.30;;;;;;5036460;28;20076;-62
2021/10/01 22:14:42;;;;;;;4.20;0.85;;;13.70;83.20;;;;;;5028415;28;20037;-62
2021/10/01 22:20:14;;;;;;;4.63;0.65;;;13.70;83.10;;;;;;5037685;28;20237;-62
2021/10/01 22:22:45;;;;;;;1.83;1.00;;;13.70;83.00;;;;;;5038130;28;20079;-62